Time;durP1;ratioP1;P1;durP2;ratioP2;P2;SDS_P1;SDS_P2;PMS_P1;PMS_P2;Temp;Humidity;BMP_temperature;BMP_pressure;BME280_temperature;BME280_humidity;BME280_pressure;Samples;Min_cycle;Max_cycle;Signal;HPM_P1;HPM_P2
2022/07/06 00:01:02;;;;;;;;;4.00;2.00;;;;;22.53;49.40;102351.59;5070099;28;65868;-73
2022/07/06 00:03:27;;;;;;;;;5.00;2.33;;;;;22.48;49.48;102360.66;5074093;28;65239;-74
2022/07/06 00:05:53;;;;;;;;;2.00;2.00;;;;;22.47;50.25;102366.03;5074895;28;45811;-73
2022/07/06 00:08:18;;;;;;;;;3.00;3.00;;;;;22.41;50.18;102364.31;5059794;28;58741;-74
2022/07/06 00:10:43;;;;;;;;;2.67;2.67;;;;;22.37;50.25;102365.31;5073066;28;65685;-74
2022/07/06 00:13:09;;;;;;;;;4.00;3.00;;;;;22.36;50.43;102370.69;5075069;28;50484;-74
2022/07/06 00:15:34;;;;;;;;;4.00;2.67;;;;;22.29;50.82;102367.19;5069122;28;45434;-73
2022/07/06 00:17:59;;;;;;;;;3.00;3.00;;;;;22.26;51.03;102372.59;5078739;28;45517;-74
2022/07/06 00:20:25;;;;;;;;;3.00;3.00;;;;;22.24;51.19;102369.03;5074639;28;65544;-74
2022/07/06 00:22:50;;;;;;;;;4.00;3.00;;;;;22.23;51.28;102359.19;5078170;28;69599;-75
2022/07/06 00:25:15;;;;;;;;;3.00;3.00;;;;;22.20;51.63;102356.53;5076238;28;60695;-74
2022/07/06 00:27:41;;;;;;;;;2.33;2.33;;;;;22.17;51.38;102365.56;5077122;28;62648;-73
2022/07/06 00:30:07;;;;;;;;;3.67;3.67;;;;;22.14;51.98;102364.69;5074668;28;46282;-74
2022/07/06 00:32:32;;;;;;;;;2.33;2.33;;;;;22.08;52.11;102362.94;5075591;28;45300;-74
2022/07/06 00:34:57;;;;;;;;;2.33;2.33;;;;;22.06;52.31;102364.75;5047227;28;53261;-75
2022/07/06 00:37:23;;;;;;;;;4.00;4.00;;;;;22.04;52.33;102365.69;5075676;28;46976;-76
2022/07/06 00:39:48;;;;;;;;;4.00;2.67;;;;;22.01;52.55;102361.25;5077490;28;64707;-75
2022/07/06 00:42:13;;;;;;;;;3.00;3.00;;;;;21.98;53.11;102363.94;5077054;27;61255;-75
2022/07/06 00:44:39;;;;;;;;;3.33;3.33;;;;;21.96;53.03;102360.41;5077026;28;59754;-74
2022/07/06 00:47:05;;;;;;;;;5.00;3.00;;;;;21.90;53.24;102356.00;5078066;28;60007;-75
2022/07/06 00:52:15;;;;;;;;;2.00;2.00;;;;;21.83;53.40;102362.31;5072149;28;45302;-75
2022/07/06 00:54:42;;;;;;;;;2.67;2.67;;;;;21.79;54.02;102352.53;5078200;28;45541;-75
2022/07/06 00:57:07;;;;;;;;;3.00;3.00;;;;;21.77;54.16;102357.03;5069430;28;45665;-74
2022/07/06 00:59:33;;;;;;;;;5.00;3.00;;;;;21.74;54.27;102350.81;5054798;28;47242;-74
2022/07/06 01:01:58;;;;;;;;;2.00;2.00;;;;;21.70;54.38;102361.59;5056274;28;70539;-75
2022/07/06 01:04:24;;;;;;;;;2.00;2.00;;;;;21.67;54.88;102360.72;5077955;28;45491;-75
2022/07/06 01:06:49;;;;;;;;;3.00;3.00;;;;;21.65;55.17;102362.53;5076796;28;57127;-74
2022/07/06 01:09:14;;;;;;;;;2.00;2.00;;;;;21.61;55.54;102367.03;5070032;28;56692;-75
2022/07/06 01:11:40;;;;;;;;;4.00;4.00;;;;;21.58;55.62;102375.16;5072941;28;65494;-74
2022/07/06 01:14:05;;;;;;;;;4.67;3.00;;;;;21.54;55.43;102372.53;5075141;28;45222;-74
2022/07/06 01:16:31;;;;;;;;;4.00;3.33;;;;;21.49;56.34;102371.66;5077899;28;45519;-73
2022/07/06 01:18:56;;;;;;;;;3.00;3.00;;;;;21.47;56.58;102370.81;5059691;28;45752;-73
2022/07/06 01:21:22;;;;;;;;;4.33;3.00;;;;;21.44;56.82;102372.59;5077674;28;61014;-74
2022/07/06 01:23:48;;;;;;;;;3.00;3.00;;;;;21.39;56.88;102371.75;5079157;28;45374;-75
2022/07/06 01:26:15;;;;;;;;;4.00;2.00;;;;;21.34;57.00;102372.69;5078203;28;45443;-72
2022/07/06 01:28:41;;;;;;;;;2.33;2.33;;;;;21.30;57.25;102371.81;5076638;28;46444;-74
2022/07/06 01:31:21;;;;;;;;;5.33;3.67;;;;;21.28;57.64;102367.34;5070305;28;45464;-73
2022/07/06 01:33:47;;;;;;;;;3.33;3.33;;;;;21.26;58.13;102366.47;5077630;28;45457;-73
2022/07/06 01:36:12;;;;;;;;;3.00;3.00;;;;;21.23;58.12;102370.06;5076812;28;46717;-73
2022/07/06 01:38:51;;;;;;;;;3.00;3.00;;;;;21.23;58.11;102371.88;5075559;28;67144;-73
2022/07/06 01:41:17;;;;;;;;;3.67;3.67;;;;;21.20;58.74;102362.06;5060283;28;45311;-74
2022/07/06 01:43:43;;;;;;;;;2.33;2.33;;;;;21.16;58.72;102369.25;5078096;28;45288;-74
2022/07/06 01:46:08;;;;;;;;;3.00;3.00;;;;;21.16;58.98;102362.97;5077204;28;45449;-74
2022/07/06 01:48:34;;;;;;;;;4.33;4.00;;;;;21.14;59.32;102365.66;5058495;28;59462;-74
2022/07/06 01:50:59;;;;;;;;;3.67;3.67;;;;;21.15;59.52;102378.22;5078025;28;45413;-73
2022/07/06 01:53:24;;;;;;;;;6.33;4.00;;;;;21.11;60.27;102370.19;5077457;28;45682;-75
2022/07/06 01:55:50;;;;;;;;;5.67;3.00;;;;;21.09;60.05;102367.53;5071918;28;56162;-73
2022/07/06 01:58:15;;;;;;;;;7.33;3.00;;;;;21.01;60.12;102357.72;5077164;28;47318;-74
2022/07/06 02:00:41;;;;;;;;;6.00;3.00;;;;;21.02;60.71;102365.75;5075419;28;63496;-75
2022/07/06 02:03:06;;;;;;;;;5.00;3.67;;;;;21.00;61.01;102369.38;5068995;28;45363;-74
2022/07/06 02:05:31;;;;;;;;;3.67;3.67;;;;;20.98;61.08;102369.38;5075324;28;50856;-74
2022/07/06 02:07:57;;;;;;;;;4.00;4.00;;;;;20.95;61.05;102366.72;5076248;28;64584;-75
2022/07/06 02:10:22;;;;;;;;;3.67;3.00;;;;;20.92;61.20;102373.00;5058366;28;65445;-74
2022/07/06 02:12:47;;;;;;;;;6.00;4.00;;;;;20.90;61.37;102363.19;5073952;28;62126;-74
2022/07/06 02:15:13;;;;;;;;;4.00;4.00;;;;;20.87;61.71;102358.72;5076021;28;55469;-75
2022/07/06 02:17:38;;;;;;;;;4.00;4.00;;;;;20.87;62.10;102365.88;5073335;28;46519;-75
2022/07/06 02:20:05;;;;;;;;;7.00;6.00;;;;;20.84;62.56;102360.53;5072134;28;45450;-74
2022/07/06 02:22:30;;;;;;;;;4.00;3.00;;;;;20.83;63.09;102358.78;5077331;28;45465;-74
2022/07/06 02:24:56;;;;;;;;;5.00;4.00;;;;;20.81;62.78;102365.94;5076198;28;63025;-74
2022/07/06 02:27:21;;;;;;;;;4.00;4.00;;;;;20.76;63.00;102355.22;5075940;28;65198;-76
2022/07/06 02:29:46;;;;;;;;;3.67;3.67;;;;;20.73;63.14;102349.00;5066039;28;59792;-73
2022/07/06 02:32:11;;;;;;;;;4.33;3.67;;;;;20.67;63.40;102339.19;5065387;28;45439;-74
2022/07/06 02:34:37;;;;;;;;;4.67;4.67;;;;;20.62;64.22;102333.84;5076941;28;57382;-75
2022/07/06 02:37:02;;;;;;;;;3.67;3.67;;;;;20.60;63.87;102332.06;5074270;28;65640;-74
2022/07/06 02:39:28;;;;;;;;;5.33;4.33;;;;;20.57;64.59;102329.41;5043733;28;45277;-75
2022/07/06 02:41:53;;;;;;;;;4.00;4.00;;;;;20.58;64.57;102341.94;5075571;28;59993;-75
2022/07/06 02:44:18;;;;;;;;;6.67;4.67;;;;;20.54;65.29;102345.53;5070383;28;45158;-74
2022/07/06 02:46:44;;;;;;;;;3.00;3.00;;;;;20.51;65.16;102345.56;5056996;28;62405;-74
2022/07/06 02:49:09;;;;;;;;;6.00;4.00;;;;;20.49;65.72;102350.91;5069224;28;64970;-74
2022/07/06 02:51:34;;;;;;;;;8.00;5.00;;;;;20.47;65.83;102357.22;5060580;28;60411;-74
2022/07/06 02:54:00;;;;;;;;;6.33;4.00;;;;;20.46;65.77;102356.31;5068920;28;45464;-74
2022/07/06 02:56:25;;;;;;;;;5.33;5.00;;;;;20.42;66.32;102354.50;5062667;28;46450;-74
2022/07/06 02:58:50;;;;;;;;;5.00;5.00;;;;;20.39;66.39;102363.44;5066255;28;64265;-74
2022/07/06 03:01:16;;;;;;;;;5.67;4.33;;;;;20.37;67.02;102367.94;5070805;28;61206;-75
2022/07/06 03:03:41;;;;;;;;;4.67;4.67;;;;;20.34;66.83;102357.22;5067960;28;61752;-74
2022/07/06 03:06:06;;;;;;;;;9.00;4.33;;;;;20.31;67.46;102365.28;5069294;28;68647;-74
2022/07/06 03:08:34;;;;;;;;;7.67;4.67;;;;;20.29;67.85;102366.19;5066455;28;45422;-75
2022/07/06 03:10:59;;;;;;;;;4.67;4.67;;;;;20.25;68.27;102369.81;5061159;28;45383;-76
2022/07/06 03:13:24;;;;;;;;;6.00;4.33;;;;;20.22;68.58;102365.34;5072545;28;59932;-75
2022/07/06 03:15:50;;;;;;;;;6.00;4.67;;;;;20.18;68.38;102366.25;5074664;28;66095;-74
2022/07/06 03:18:15;;;;;;;;;7.00;6.00;;;;;20.16;68.78;102370.72;5075730;28;45352;-75
2022/07/06 03:20:40;;;;;;;;;8.67;5.33;;;;;20.17;68.87;102371.63;5067923;28;60328;-74
2022/07/06 03:23:05;;;;;;;;;6.00;6.00;;;;;20.17;69.04;102377.88;5075338;28;59719;-73
2022/07/06 03:25:32;;;;;;;;;6.00;6.00;;;;;20.12;69.22;102369.84;5074168;28;70462;-74
2022/07/06 03:27:57;;;;;;;;;4.67;4.67;;;;;20.12;69.45;102368.94;5075310;28;45695;-73
2022/07/06 03:30:23;;;;;;;;;7.67;5.00;;;;;20.10;70.24;102371.66;5075033;28;59369;-73
2022/07/06 03:32:48;;;;;;;;;5.00;5.00;;;;;20.03;70.43;102374.38;5068828;28;60585;-75
2022/07/06 03:35:13;;;;;;;;;8.00;5.33;;;;;19.98;70.42;102371.69;5072714;28;70867;-73
2022/07/06 03:37:39;;;;;;;;;9.67;6.00;;;;;19.99;70.99;102378.84;5076183;28;45419;-74
2022/07/06 03:40:06;;;;;;;;;8.00;6.00;;;;;19.94;71.34;102380.66;5075025;28;64721;-74
2022/07/06 03:42:31;;;;;;;;;6.67;5.00;;;;;19.94;71.74;102380.66;5074752;28;45465;-75
2022/07/06 03:44:56;;;;;;;;;5.00;5.00;;;;;19.91;72.38;102383.31;5074709;28;67214;-75
2022/07/06 03:47:21;;;;;;;;;4.67;4.67;;;;;19.88;72.05;102386.91;5074018;28;62596;-74
2022/07/06 03:49:47;;;;;;;;;9.00;6.00;;;;;19.88;72.49;102380.66;5074989;28;57069;-74
2022/07/06 03:52:12;;;;;;;;;5.33;5.33;;;;;19.86;72.98;102386.00;5078194;27;45519;-74
2022/07/06 03:54:38;;;;;;;;;7.00;7.00;;;;;19.83;72.39;102380.66;5050246;28;69683;-73
2022/07/06 03:57:03;;;;;;;;;5.33;4.67;;;;;19.82;73.32;102391.41;5074753;28;68332;-74
2022/07/06 03:59:28;;;;;;;;;6.67;6.00;;;;;19.78;73.57;102386.94;5077397;28;55028;-74
2022/07/06 04:01:54;;;;;;;;;6.00;6.00;;;;;19.76;73.60;102395.00;5078664;28;52579;-74
2022/07/06 04:04:19;;;;;;;;;8.00;6.00;;;;;19.71;74.44;102396.78;5075415;28;66101;-75
2022/07/06 04:06:44;;;;;;;;;1.00;1.00;;;;;19.70;74.91;102392.31;5077559;28;45608;-74
2022/07/06 04:09:10;;;;;;;;;7.00;6.00;;;;;19.67;75.24;102392.31;5072547;28;45275;-74
2022/07/06 04:11:36;;;;;;;;;7.00;7.00;;;;;19.62;74.84;102394.13;5075414;28;45375;-73
2022/07/06 04:14:01;;;;;;;;;5.33;5.33;;;;;19.61;75.02;102392.34;5071308;28;62264;-74
2022/07/06 04:16:26;;;;;;;;;7.00;4.33;;;;;19.59;75.83;102394.09;5071832;28;65378;-74
2022/07/06 04:18:52;;;;;;;;;11.33;7.00;;;;;19.58;75.95;102398.53;5077266;28;45484;-74
2022/07/06 04:21:17;;;;;;;;;8.00;7.00;;;;;19.60;75.89;102399.50;5077446;28;59054;-75
2022/07/06 04:23:42;;;;;;;;;6.67;5.33;;;;;19.58;75.94;102390.50;5078118;28;67910;-75
2022/07/06 04:26:08;;;;;;;;;6.67;5.67;;;;;19.56;76.24;102403.03;5076600;28;64370;-72
2022/07/06 04:28:33;;;;;;;;;7.00;5.00;;;;;19.57;76.70;102395.88;5078330;28;45154;-73
2022/07/06 04:30:58;;;;;;;;;5.33;5.33;;;;;19.61;77.14;102401.28;5076425;28;57764;-74
2022/07/06 04:33:24;;;;;;;;;7.67;6.00;;;;;19.58;77.16;102397.66;5076166;28;70724;-74
2022/07/06 04:35:49;;;;;;;;;8.33;7.00;;;;;19.56;77.57;102396.78;5064808;28;63767;-74
2022/07/06 04:38:14;;;;;;;;;6.33;5.00;;;;;19.54;77.36;102390.50;5072609;28;61071;-74
2022/07/06 04:40:40;;;;;;;;;8.00;7.00;;;;;19.55;77.62;102392.31;5076481;28;45390;-74
2022/07/06 04:43:05;;;;;;;;;6.00;6.00;;;;;19.52;77.93;102385.16;5075576;28;66865;-74
2022/07/06 04:45:30;;;;;;;;;4.67;4.67;;;;;19.54;78.25;102391.41;5070535;28;56688;-73
2022/07/06 04:47:56;;;;;;;;;5.33;5.33;;;;;19.54;78.54;102388.72;5067953;28;45458;-75
2022/07/06 04:50:21;;;;;;;;;6.00;6.00;;;;;19.55;78.80;102395.00;5078264;28;62673;-74
2022/07/06 04:52:46;;;;;;;;;10.00;6.67;;;;;19.54;78.26;102387.81;5073941;28;68473;-74
2022/07/06 04:55:14;;;;;;;;;7.00;7.00;;;;;19.56;79.37;102396.78;5175113;22;64856;-75
2022/07/06 04:57:39;;;;;;;;;6.00;6.00;;;;;19.54;79.41;102399.44;5075548;28;46572;-71
2022/07/06 05:00:05;;;;;;;;;8.00;6.00;;;;;19.57;78.83;102404.81;5077602;27;45304;-73
2022/07/06 05:02:31;;;;;;;;;9.00;8.00;;;;;19.56;78.96;102407.50;5069612;27;47527;-74
2022/07/06 05:04:56;;;;;;;;;9.33;8.00;;;;;19.56;79.35;102399.47;5077257;27;58238;-73
2022/07/06 05:07:22;;;;;;;;;9.00;7.67;;;;;19.56;79.87;102399.47;5074392;27;59570;-74
2022/07/06 05:09:47;;;;;;;;;5.00;5.00;;;;;19.56;79.65;102405.72;5078447;27;45358;-73
2022/07/06 05:12:12;;;;;;;;;8.33;6.00;;;;;19.56;79.84;102399.47;5076193;27;58096;-73
2022/07/06 05:14:38;;;;;;;;;8.00;8.00;;;;;19.57;79.90;102403.91;5072696;27;52283;-75
2022/07/06 05:17:03;;;;;;;;;9.00;8.00;;;;;19.56;80.35;102395.00;5075267;28;45318;-74
2022/07/06 05:19:28;;;;;;;;;8.33;7.00;;;;;19.56;80.89;102403.03;5077453;27;60291;-74
2022/07/06 05:21:54;;;;;;;;;10.33;7.67;;;;;19.54;80.52;102406.59;5076779;27;46439;-74
2022/07/06 05:24:19;;;;;;;;;7.00;6.00;;;;;19.52;80.53;102405.72;5076138;28;55994;-74
2022/07/06 05:26:45;;;;;;;;;6.67;6.00;;;;;19.46;81.05;102398.56;5075804;27;47339;-75
2022/07/06 05:29:10;;;;;;;;;9.33;6.67;;;;;19.46;81.68;102403.94;5070668;27;45426;-75
2022/07/06 05:31:36;;;;;;;;;8.67;7.67;;;;;19.44;83.20;102400.38;5076575;27;45752;-73
2022/07/06 05:34:01;;;;;;;;;5.67;5.33;;;;;19.45;81.97;102396.78;5070587;27;63224;-73
2022/07/06 05:36:26;;;;;;;;;7.00;7.00;;;;;19.49;82.15;102409.25;5074064;27;63590;-74
2022/07/06 05:38:52;;;;;;;;;8.33;7.00;;;;;19.50;82.16;102405.72;5077323;27;52646;-73
2022/07/06 05:41:17;;;;;;;;;6.00;5.67;;;;;19.53;82.00;102407.50;5075667;27;68553;-74
2022/07/06 05:43:42;;;;;;;;;8.00;8.00;;;;;19.51;82.74;102409.28;5075362;27;69002;-74
2022/07/06 05:46:08;;;;;;;;;7.00;7.00;;;;;19.53;82.17;102415.53;5075886;27;63525;-74
2022/07/06 05:51:17;;;;;;;;;6.67;6.67;;;;;19.56;82.38;102420.91;5072064;28;45772;-73
2022/07/06 05:53:42;;;;;;;;;9.67;5.67;;;;;19.55;82.63;102411.06;5076282;27;66158;-73
2022/07/06 05:56:08;;;;;;;;;8.33;7.00;;;;;19.57;82.87;102412.84;5076934;27;45418;-74
2022/07/06 05:58:34;;;;;;;;;7.00;6.00;;;;;19.60;82.75;102409.28;5075611;28;45626;-75
2022/07/06 06:00:59;;;;;;;;;7.33;6.00;;;;;19.63;83.12;102414.66;5076229;27;64815;-75
2022/07/06 06:03:24;;;;;;;;;6.00;6.00;;;;;19.65;82.77;102417.31;5072754;27;56889;-74
2022/07/06 06:05:50;;;;;;;;;8.33;6.33;;;;;19.69;82.63;102417.31;5073872;28;46011;-75
2022/07/06 06:08:16;;;;;;;;;7.00;7.00;;;;;19.69;83.33;102417.31;5066090;27;45486;-75
2022/07/06 06:10:41;;;;;;;;;8.00;6.00;;;;;19.73;82.93;102427.16;5076501;27;45532;-76
2022/07/06 06:13:06;;;;;;;;;8.33;7.00;;;;;19.78;83.00;102430.72;5074006;27;70129;-76
2022/07/06 06:15:32;;;;;;;;;6.00;6.00;;;;;19.80;83.36;102426.25;5071600;28;45850;-77
2022/07/06 06:17:57;;;;;;;;;10.00;5.33;;;;;19.75;83.14;102428.03;5074551;27;45400;-76
2022/07/06 06:20:23;;;;;;;;;8.00;8.00;;;;;19.65;84.43;102431.63;5067288;27;64877;-77
2022/07/06 06:22:56;;;;;;;;;7.33;7.00;;;;;19.52;83.67;102427.13;5076141;27;45268;-76
2022/07/06 06:25:33;;;;;;;;;6.00;6.00;;;;;19.45;84.27;102418.22;5076580;27;45515;-77
2022/07/06 06:27:59;;;;;;;;;9.33;7.00;;;;;19.44;84.29;102423.56;5070822;28;45333;-76
2022/07/06 06:30:24;;;;;;;;;6.33;5.67;;;;;19.40;83.84;102417.31;5072888;27;45594;-76
2022/07/06 06:32:50;;;;;;;;;7.67;5.67;;;;;19.43;84.73;102416.41;5070316;27;45367;-78
2022/07/06 06:35:15;;;;;;;;;8.33;7.33;;;;;19.44;84.38;102423.56;5073440;27;45382;-78
2022/07/06 06:37:41;;;;;;;;;6.00;5.67;;;;;19.42;84.67;102418.22;5076822;28;45515;-78
2022/07/06 06:40:08;;;;;;;;;8.67;7.33;;;;;19.46;84.28;102420.00;5073629;27;46461;-77
2022/07/06 06:42:35;;;;;;;;;5.67;5.67;;;;;19.46;84.92;102417.31;5076582;27;45409;-78
2022/07/06 06:45:00;;;;;;;;;7.33;6.33;;;;;19.47;85.15;102419.09;5072642;27;45630;-80
2022/07/06 06:47:26;;;;;;;;;7.67;5.67;;;;;19.52;84.13;102425.34;5075093;28;57583;-81
2022/07/06 06:49:51;;;;;;;;;8.33;8.33;;;;;19.52;83.67;102422.66;5073129;27;65146;-81
2022/07/06 06:52:16;;;;;;;;;10.00;6.00;;;;;19.54;83.53;102425.34;5076270;27;45580;-81
2022/07/06 06:54:42;;;;;;;;;8.00;8.00;;;;;19.58;84.08;102433.38;5074885;27;45329;-80
2022/07/06 06:57:09;;;;;;;;;7.67;5.00;;;;;19.61;83.34;102437.91;5068689;27;56796;-81
2022/07/06 06:59:34;;;;;;;;;5.00;5.00;;;;;19.65;82.65;102436.97;5074680;28;46229;-81
2022/07/06 07:01:59;;;;;;;;;5.00;5.00;;;;;19.71;82.65;102437.00;5070117;27;45546;-78
2022/07/06 07:04:25;;;;;;;;;9.33;6.33;;;;;19.78;82.20;102436.09;5066906;28;55630;-80
2022/07/06 07:06:50;;;;;;;;;7.00;5.33;;;;;19.81;81.55;102433.38;5070172;28;45568;-78
2022/07/06 07:09:16;;;;;;;;;7.00;6.33;;;;;19.85;81.14;102427.13;5061298;27;69334;-78
2022/07/06 07:11:41;;;;;;;;;5.00;5.00;;;;;19.91;80.45;102434.25;5068366;28;66610;-80
2022/07/06 07:14:06;;;;;;;;;7.33;6.00;;;;;19.96;80.44;102427.09;5070994;28;57586;-80
2022/07/06 07:16:32;;;;;;;;;5.00;5.00;;;;;20.03;79.35;102431.56;5072702;28;51147;-78
2022/07/06 07:18:57;;;;;;;;;6.00;5.67;;;;;20.08;78.61;102436.91;5065932;28;46290;-77
2022/07/06 07:21:22;;;;;;;;;3.67;3.67;;;;;20.11;77.71;102434.22;5068686;27;45523;-78
2022/07/06 07:23:49;;;;;;;;;8.00;5.00;;;;;20.13;76.86;102440.47;5075341;28;45310;-78
2022/07/06 07:26:15;;;;;;;;;4.00;4.00;;;;;20.16;76.41;102435.09;5073991;28;45308;-79
2022/07/06 07:28:40;;;;;;;;;4.67;4.00;;;;;20.23;75.82;102439.53;5071048;27;45526;-79
2022/07/06 07:31:06;;;;;;;;;3.00;3.00;;;;;20.28;75.45;102443.09;5073260;28;65513;-77
2022/07/06 07:33:31;;;;;;;;;7.00;6.33;;;;;20.34;75.32;102431.44;5073435;27;45628;-79
2022/07/06 07:35:56;;;;;;;;;6.00;5.00;;;;;20.40;74.81;102428.75;5073575;27;62456;-78
2022/07/06 07:38:22;;;;;;;;;5.00;4.00;;;;;20.42;74.71;102433.22;5065486;27;46816;-78
2022/07/06 07:40:47;;;;;;;;;5.00;5.00;;;;;20.49;74.54;102430.53;5069260;27;45469;-79
2022/07/06 07:43:12;;;;;;;;;6.67;5.00;;;;;20.53;74.63;102426.94;5071479;28;45496;-80
2022/07/06 07:45:38;;;;;;;;;4.33;4.33;;;;;20.61;73.45;102427.78;5062489;28;45622;-78
2022/07/06 07:48:04;;;;;;;;;5.00;5.00;;;;;20.64;73.83;102419.72;5070659;28;47553;-77
2022/07/06 07:50:29;;;;;;;;;5.67;5.67;;;;;20.69;72.91;102409.84;5068240;27;45339;-78
2022/07/06 07:52:55;;;;;;;;;3.67;3.67;;;;;20.78;72.90;102419.66;5070805;27;63083;-77
2022/07/06 07:55:20;;;;;;;;;6.33;4.67;;;;;20.83;72.78;102426.78;5061822;28;45555;-78
2022/07/06 07:57:46;;;;;;;;;4.00;4.00;;;;;20.89;71.92;102424.06;5064006;28;46169;-78
2022/07/06 08:00:11;;;;;;;;;5.00;4.00;;;;;20.96;71.71;102415.94;5073509;27;64737;-78
2022/07/06 08:02:37;;;;;;;;;5.33;4.00;;;;;21.01;71.79;102412.34;5072936;27;45551;-77
2022/07/06 08:05:03;;;;;;;;;3.00;3.00;;;;;21.11;70.93;102418.53;5069614;27;45461;-78
2022/07/06 08:07:29;;;;;;;;;3.00;3.00;;;;;21.14;69.74;102415.81;5073019;28;46730;-78
2022/07/06 08:09:54;;;;;;;;;5.00;3.00;;;;;21.16;69.06;102417.59;5072921;27;67792;-79
2022/07/06 08:12:19;;;;;;;;;3.33;3.33;;;;;21.19;68.79;102416.66;5059696;27;45497;-78
2022/07/06 08:14:45;;;;;;;;;4.33;4.33;;;;;21.23;68.50;102415.75;5063632;28;46117;-79
2022/07/06 08:17:10;;;;;;;;;4.00;4.00;;;;;21.26;69.04;102410.38;5069160;28;67767;-78
2022/07/06 08:19:35;;;;;;;;;4.67;3.67;;;;;21.34;68.50;102418.38;5071765;28;45656;-78
2022/07/06 08:22:06;;;;;;;;;4.67;4.00;;;;;21.39;68.20;102413.84;5071265;28;45420;-77
2022/07/06 08:24:32;;;;;;;;;4.00;4.00;;;;;21.41;67.98;102412.97;5066728;27;45796;-79
2022/07/06 08:26:58;;;;;;;;;4.00;4.00;;;;;21.48;68.00;102408.41;5064810;28;46336;-77
2022/07/06 08:29:23;;;;;;;;;4.67;4.67;;;;;21.53;67.24;102411.06;5071656;28;45523;-78
2022/07/06 08:31:48;;;;;;;;;6.00;6.00;;;;;21.59;67.19;102419.06;5068587;27;58414;-79
2022/07/06 08:34:14;;;;;;;;;4.67;4.67;;;;;21.61;66.93;102414.56;5071073;28;60116;-80
2022/07/06 08:36:39;;;;;;;;;7.00;4.00;;;;;21.66;67.15;102415.41;5072979;28;46359;-79
2022/07/06 08:39:04;;;;;;;;;5.67;5.67;;;;;21.69;66.54;102410.88;5072070;27;59152;-78
2022/07/06 08:41:30;;;;;;;;;5.33;5.00;;;;;21.74;66.72;102413.53;5071723;27;59514;-79
2022/07/06 08:43:55;;;;;;;;;5.00;5.00;;;;;21.78;66.45;102415.25;5075856;28;45500;-78
2022/07/06 08:46:21;;;;;;;;;4.33;4.33;;;;;21.80;66.93;102404.50;5077141;27;45568;-80
2022/07/06 08:48:47;;;;;;;;;7.33;5.67;;;;;21.86;66.45;102407.13;5073489;27;65036;-79
2022/07/06 08:51:14;;;;;;;;;5.67;5.67;;;;;21.90;66.64;102414.28;5067930;27;45492;-78
2022/07/06 08:53:44;;;;;;;;;5.00;4.00;;;;;21.90;66.51;102409.78;5073165;28;45619;-79
2022/07/06 08:56:10;;;;;;;;;7.00;5.00;;;;;21.94;66.44;102392.72;5068020;28;46920;-78
2022/07/06 08:58:36;;;;;;;;;6.00;5.33;;;;;22.02;66.23;102399.78;5075847;28;45635;-79
2022/07/06 09:01:02;;;;;;;;;4.00;4.00;;;;;22.06;66.48;102399.75;5076095;27;45531;-80
2022/07/06 09:03:28;;;;;;;;;7.67;4.00;;;;;22.08;66.63;102397.91;5070458;28;45578;-78
2022/07/06 09:05:59;;;;;;;;;7.33;5.00;;;;;22.15;66.48;102391.56;5073185;27;47291;-79
2022/07/06 09:08:27;;;;;;;;;5.33;4.00;;;;;22.22;66.51;102395.97;5066205;28;45470;-79
2022/07/06 09:10:52;;;;;;;;;4.00;4.00;;;;;22.31;66.71;102392.25;5072683;27;45414;-78
2022/07/06 09:13:17;;;;;;;;;4.67;4.00;;;;;22.44;67.18;102393.91;5083519;27;58399;-79
2022/07/06 09:15:43;;;;;;;;;5.00;4.00;;;;;22.57;66.09;102386.53;5070739;27;70472;-78
2022/07/06 09:18:08;;;;;;;;;4.00;4.00;;;;;22.65;65.52;102381.06;5075560;28;45496;-77
2022/07/06 09:20:34;;;;;;;;;3.33;3.33;;;;;22.72;65.15;102386.31;5077054;27;45510;-79
2022/07/06 09:23:02;;;;;;;;;6.00;4.67;;;;;22.75;64.77;102380.00;5063817;27;45498;-79
2022/07/06 09:25:28;;;;;;;;;6.33;3.67;;;;;22.79;64.88;102379.03;5074058;27;47615;-78
2022/07/06 09:27:57;;;;;;;;;3.67;3.67;;;;;22.80;64.81;102382.59;5068902;27;45544;-77
2022/07/06 09:30:23;;;;;;;;;3.00;3.00;;;;;22.81;64.65;102379.03;5086837;27;45510;-79
2022/07/06 09:32:51;;;;;;;;;3.00;3.00;;;;;22.85;63.77;102378.97;5076339;28;45519;-79
2022/07/06 09:35:36;;;;;;;;;3.00;3.00;;;;;22.84;63.21;102376.28;5065077;27;46589;-79
2022/07/06 09:38:13;;;;;;;;;6.00;4.00;;;;;22.93;63.86;102378.88;5075181;28;45247;-78
2022/07/06 09:40:40;;;;;;;;;4.33;4.00;;;;;22.97;63.73;102386.88;5073039;27;45654;-79
2022/07/06 09:43:18;;;;;;;;;3.00;3.00;;;;;23.00;62.24;102384.13;5069158;28;45568;-79
2022/07/06 09:45:54;;;;;;;;;5.33;3.00;;;;;22.99;61.38;102386.84;5063324;28;46286;-80
2022/07/06 09:48:25;;;;;;;;;4.00;2.67;;;;;23.05;61.67;102372.38;5074998;28;45657;-79
2022/07/06 09:50:53;;;;;;;;;5.67;4.00;;;;;23.16;62.20;102379.38;5073558;27;45512;-77
2022/07/06 09:53:19;;;;;;;;;4.00;4.00;;;;;23.33;61.81;102381.81;5069951;28;45512;-79
2022/07/06 09:55:51;;;;;;;;;6.00;5.00;;;;;23.40;61.56;102379.88;5069676;27;46556;-78
2022/07/06 09:58:17;;;;;;;;;4.33;4.33;;;;;23.45;61.54;102380.69;5062358;27;45458;-79
2022/07/06 10:00:44;;;;;;;;;5.00;4.00;;;;;23.52;61.57;102375.16;5068935;28;45545;-78
2022/07/06 10:03:10;;;;;;;;;4.00;4.00;;;;;23.63;62.52;102379.50;5071067;28;45497;-78
2022/07/06 10:05:40;;;;;;;;;4.67;4.67;;;;;23.72;61.87;102379.31;5068593;28;47255;-76
2022/07/06 10:08:09;;;;;;;;;3.00;3.00;;;;;23.79;60.20;102381.84;5069838;28;45528;-77
2022/07/06 10:10:35;;;;;;;;;5.33;3.00;;;;;23.82;59.42;102375.53;5066186;27;45488;-77
2022/07/06 10:13:01;;;;;;;;;5.00;4.00;;;;;23.83;58.83;102365.63;5075813;28;46275;-79
2022/07/06 10:15:28;;;;;;;;;4.67;4.67;;;;;23.82;59.54;102364.75;5067635;27;47237;-78
2022/07/06 10:17:55;;;;;;;;;4.00;4.00;;;;;23.85;59.11;102363.78;5074410;28;45569;-77
2022/07/06 10:20:21;;;;;;;;;4.00;4.00;;;;;23.95;59.02;102371.66;5067196;27;45375;-77
2022/07/06 10:22:50;;;;;;;;;5.00;5.00;;;;;24.09;58.63;102359.72;5064969;28;45342;-78
2022/07/06 10:25:17;;;;;;;;;5.67;5.00;;;;;24.23;59.76;102365.69;5082490;27;46938;-78
2022/07/06 10:27:43;;;;;;;;;5.00;5.00;;;;;24.36;58.85;102364.53;5074324;28;45477;-79
2022/07/06 10:30:09;;;;;;;;;4.00;4.00;;;;;24.46;58.96;102358.00;5065352;28;45589;-78
2022/07/06 10:32:36;;;;;;;;;5.00;4.00;;;;;24.51;58.41;102361.50;5075264;27;45457;-78
2022/07/06 10:35:02;;;;;;;;;4.67;4.67;;;;;24.50;57.97;102361.50;5071286;28;47429;-79
2022/07/06 10:37:27;;;;;;;;;6.33;5.00;;;;;24.46;57.58;102360.72;5074084;28;45457;-79
2022/07/06 10:42:55;;;;;;;;;7.00;5.00;;;;;24.49;57.83;102363.31;5076048;28;45404;-79
2022/07/06 10:45:27;;;;;;;;;3.67;3.67;;;;;24.65;57.09;102371.09;5075912;27;46733;-79
2022/07/06 10:48:10;;;;;;;;;8.00;5.00;;;;;24.78;56.76;102365.38;5074636;28;45192;-80
2022/07/06 10:50:36;;;;;;;;;6.00;4.00;;;;;24.87;56.60;102360.66;5072394;28;45563;-79
2022/07/06 10:53:01;;;;;;;;;6.00;6.00;;;;;24.86;57.42;102353.47;5069737;27;45338;-79
2022/07/06 10:55:30;;;;;;;;;5.00;5.00;;;;;24.93;56.52;102366.81;5073429;27;69608;-78
2022/07/06 10:57:55;;;;;;;;;7.00;5.00;;;;;24.93;57.36;102365.91;5075531;28;45414;-79
2022/07/06 11:00:21;;;;;;;;;6.67;4.33;;;;;24.93;55.97;102376.72;5075620;27;45520;-79
2022/07/06 11:02:46;;;;;;;;;8.00;6.00;;;;;24.87;55.81;102369.66;5073122;28;45419;-80
2022/07/06 11:05:40;;;;;;;;;6.67;6.67;;;;;24.90;56.09;102366.88;5075697;27;51533;-79
2022/07/06 11:08:10;;;;;;;;;10.67;7.67;;;;;24.88;56.16;102357.94;5068229;27;45311;-76
2022/07/06 11:10:55;;;;;;;;;6.67;6.67;;;;;24.79;56.06;102352.75;5076150;27;45345;-78
2022/07/06 11:13:27;;;;;;;;;10.00;7.00;;;;;24.74;56.21;102354.66;5074814;27;51103;-79
2022/07/06 11:16:01;;;;;;;;;8.00;6.00;;;;;24.71;56.28;102352.03;5078291;27;46643;-78
2022/07/06 11:18:27;;;;;;;;;5.67;5.67;;;;;24.74;55.82;102346.56;5073691;27;45390;-78
2022/07/06 11:21:35;;;;;;;;;6.00;6.00;;;;;24.77;55.00;102344.69;5075091;27;45758;-77
2022/07/06 11:24:00;;;;;;;;;6.67;6.67;;;;;24.81;55.16;102342.78;5073112;28;45242;-79
2022/07/06 11:26:26;;;;;;;;;8.33;6.00;;;;;24.85;55.90;102338.19;5070277;27;46853;-77
2022/07/06 11:28:53;;;;;;;;;7.33;5.00;;;;;24.93;55.79;102338.88;5073182;27;45363;-79